Aviation Digital Data Service (ADDS)

Output produced by TAFs form (2046 UTC 21 December 2014)
found at http://aviationweather.gov/adds/tafs/
 
KGJT 212034Z 2121/2218 29008KT P6SM VCSH OVC015 
     FM220600 05005KT P6SM OVC050 
     FM220900 30005KT P6SM VCSH OVC030 
     FM221200 VRB03KT 3SM BR OVC010